Time;durP1;ratioP1;P1;durP2;ratioP2;P2;SDS_P1;SDS_P2;PMS_P1;PMS_P2;Temp;Humidity;BMP_temperature;BMP_pressure;BME280_temperature;BME280_humidity;BME280_pressure;Samples;Min_cycle;Max_cycle;Signal;HPM_P1;HPM_P2
2020/12/27 00:01:10;;;;;;;7.47;6.43;;;5.10;99.90;;;;;;4161701;28;20369;-78
2020/12/27 00:03:11;;;;;;;9.90;7.55;;;5.10;99.90;;;;;;4179275;28;20101;-78
2020/12/27 00:05:11;;;;;;;8.70;7.80;;;5.10;99.90;;;;;;4161558;28;20025;-77
2020/12/27 00:07:14;;;;;;;7.65;6.55;;;5.10;99.90;;;;;;4178953;28;20061;-77
2020/12/27 00:09:14;;;;;;;7.67;6.53;;;5.10;99.90;;;;;;4179418;28;20086;-77
2020/12/27 00:11:16;;;;;;;8.13;7.30;;;5.10;99.90;;;;;;4179131;28;20301;-77
2020/12/27 00:13:17;;;;;;;8.20;7.28;;;5.10;99.90;;;;;;4179136;28;20032;-79
2020/12/27 00:15:17;;;;;;;9.18;7.80;;;5.10;99.90;;;;;;4161347;28;20038;-79
2020/12/27 00:17:18;;;;;;;7.50;6.38;;;5.10;99.90;;;;;;4179395;28;20032;-78
2020/12/27 00:19:19;;;;;;;6.28;5.68;;;5.10;99.90;;;;;;4161324;28;20042;-77
2020/12/27 00:21:20;;;;;;;9.23;6.05;;;5.20;99.90;;;;;;4178826;28;20036;-79
2020/12/27 00:23:20;;;;;;;8.98;6.95;;;5.20;99.90;;;;;;4161383;28;20037;-78
2020/12/27 00:25:21;;;;;;;7.07;6.05;;;5.20;99.90;;;;;;4179268;28;20039;-78
2020/12/27 00:27:21;;;;;;;7.28;6.35;;;5.10;99.90;;;;;;4179069;28;20036;-78
2020/12/27 00:29:23;;;;;;;6.63;5.93;;;5.10;99.90;;;;;;4178490;28;20039;-78
2020/12/27 00:31:23;;;;;;;6.93;6.13;;;5.10;99.90;;;;;;4178744;28;20029;-78
2020/12/27 00:33:24;;;;;;;8.68;7.55;;;5.10;99.90;;;;;;4178976;28;20395;-78
2020/12/27 00:35:24;;;;;;;8.40;6.18;;;5.10;99.90;;;;;;4161071;28;20037;-78
2020/12/27 00:37:29;;;;;;;6.18;5.55;;;5.10;99.90;;;;;;4178996;28;20548;-78
2020/12/27 00:39:30;;;;;;;8.48;7.57;;;5.10;99.90;;;;;;4178052;28;20602;-78
2020/12/27 00:41:31;;;;;;;7.80;6.88;;;5.00;99.90;;;;;;4178994;28;20041;-78
2020/12/27 00:43:31;;;;;;;7.95;6.95;;;5.00;99.90;;;;;;4177292;28;20099;-79
2020/12/27 00:45:32;;;;;;;8.68;7.68;;;5.00;99.90;;;;;;4177390;28;20037;-78
2020/12/27 00:47:32;;;;;;;7.38;5.90;;;5.00;99.90;;;;;;4159249;28;20037;-79
2020/12/27 00:49:33;;;;;;;8.90;7.93;;;5.30;99.90;;;;;;4176345;28;20384;-81
2020/12/27 00:51:34;;;;;;;12.82;6.90;;;5.00;99.90;;;;;;4177198;28;20040;-79
2020/12/27 00:53:35;;;;;;;8.90;6.10;;;4.90;99.90;;;;;;4177131;28;20033;-79
2020/12/27 00:55:35;;;;;;;8.15;6.82;;;5.00;99.90;;;;;;4159040;28;20033;-79
2020/12/27 00:57:36;;;;;;;10.48;8.25;;;5.10;99.90;;;;;;4176935;28;20033;-78
2020/12/27 00:59:37;;;;;;;9.45;8.38;;;5.00;99.90;;;;;;4177279;28;20036;-78
2020/12/27 01:01:37;;;;;;;9.40;7.95;;;4.80;99.90;;;;;;4178572;28;20380;-79
2020/12/27 01:03:39;;;;;;;8.50;7.13;;;4.90;99.90;;;;;;4178400;28;20106;-78
2020/12/27 01:05:42;;;;;;;11.35;7.07;;;4.80;99.90;;;;;;4161188;28;20544;-78
2020/12/27 01:07:42;;;;;;;8.45;6.88;;;4.90;99.90;;;;;;4160957;28;20025;-78
2020/12/27 01:09:43;;;;;;;7.03;6.20;;;5.10;99.90;;;;;;4178640;28;20093;-78
2020/12/27 01:11:47;;;;;;;6.88;6.25;;;4.90;99.90;;;;;;4160887;28;20029;-78
2020/12/27 01:13:48;;;;;;;8.65;7.45;;;5.00;99.90;;;;;;4178691;28;20029;-78
2020/12/27 01:15:49;;;;;;;9.30;6.82;;;4.90;99.90;;;;;;4178693;28;20033;-79
2020/12/27 01:17:49;;;;;;;7.90;6.95;;;5.00;99.90;;;;;;4178706;28;20037;-80
2020/12/27 01:19:50;;;;;;;9.55;6.40;;;5.00;99.90;;;;;;4178677;28;20119;-80
2020/12/27 01:21:53;;;;;;;11.20;7.68;;;5.00;99.90;;;;;;4178797;28;20029;-79
2020/12/27 01:23:57;;;;;;;7.78;6.15;;;5.10;99.90;;;;;;4178630;28;20055;-80
2020/12/27 01:25:58;;;;;;;8.50;7.00;;;4.90;99.90;;;;;;4160999;28;20032;-78
2020/12/27 01:27:58;;;;;;;11.55;6.78;;;5.00;99.90;;;;;;4178472;28;20021;-78
2020/12/27 01:29:59;;;;;;;6.22;5.45;;;5.00;99.90;;;;;;4178228;28;20067;-78
2020/12/27 01:32:01;;;;;;;8.30;7.43;;;5.20;99.90;;;;;;4178579;28;20022;-78
2020/12/27 01:34:02;;;;;;;10.05;8.25;;;4.80;99.90;;;;;;4178489;28;20392;-77
2020/12/27 01:36:02;;;;;;;7.95;7.15;;;4.90;99.90;;;;;;4178499;28;20140;-78
2020/12/27 01:38:03;;;;;;;9.45;6.72;;;4.90;99.90;;;;;;4178520;28;20384;-77
2020/12/27 01:40:05;;;;;;;10.52;5.60;;;4.90;99.90;;;;;;4178191;28;20025;-78
2020/12/27 01:42:05;;;;;;;9.32;7.65;;;4.80;99.90;;;;;;4180601;28;20024;-79
2020/12/27 01:44:08;;;;;;;8.10;6.32;;;4.90;99.90;;;;;;4181468;28;20387;-78
2020/12/27 01:46:09;;;;;;;7.90;6.13;;;5.00;99.90;;;;;;4181756;28;20017;-79
2020/12/27 01:48:14;;;;;;;9.23;7.38;;;5.00;99.90;;;;;;4181279;28;20082;-79
2020/12/27 01:50:14;;;;;;;8.70;7.10;;;5.00;99.90;;;;;;4181147;28;20029;-79
2020/12/27 01:52:15;;;;;;;6.80;6.10;;;4.90;99.90;;;;;;4163681;28;20028;-78
2020/12/27 01:54:16;;;;;;;7.13;6.38;;;4.90;99.90;;;;;;4181381;28;20128;-79
2020/12/27 01:56:18;;;;;;;8.95;8.05;;;4.60;99.90;;;;;;4181726;28;20487;-78
2020/12/27 01:58:20;;;;;;;9.02;6.13;;;4.90;99.90;;;;;;4163729;28;20021;-78
2020/12/27 02:00:21;;;;;;;9.38;7.05;;;4.80;99.90;;;;;;4181435;28;20029;-79
2020/12/27 02:02:21;;;;;;;8.07;7.28;;;4.80;99.90;;;;;;4181011;28;20033;-78
2020/12/27 02:04:23;;;;;;;8.55;6.65;;;4.80;99.90;;;;;;4181606;28;20462;-78
2020/12/27 02:06:24;;;;;;;10.90;7.97;;;4.80;99.90;;;;;;4181346;28;20045;-79
2020/12/27 02:08:26;;;;;;;9.75;7.07;;;4.70;99.90;;;;;;4181225;28;20590;-78
2020/12/27 02:10:29;;;;;;;8.10;6.18;;;4.80;99.90;;;;;;4163490;28;20040;-78
2020/12/27 02:12:29;;;;;;;11.52;6.88;;;4.70;99.90;;;;;;4181445;28;20502;-78
2020/12/27 02:14:30;;;;;;;12.80;8.68;;;4.60;99.90;;;;;;4163247;28;20026;-78
2020/12/27 02:16:31;;;;;;;13.60;8.05;;;4.80;99.90;;;;;;4181558;28;20061;-78
2020/12/27 02:18:33;;;;;;;7.70;6.72;;;4.50;99.90;;;;;;4181371;28;20025;-78
2020/12/27 02:20:33;;;;;;;9.82;6.93;;;4.70;99.90;;;;;;4171413;28;20492;-78
2020/12/27 02:22:34;;;;;;;8.13;7.05;;;4.80;99.90;;;;;;4181216;28;20063;-78
2020/12/27 02:24:35;;;;;;;10.85;7.90;;;4.60;99.90;;;;;;4181056;28;20472;-78
2020/12/27 02:26:35;;;;;;;6.20;5.60;;;4.70;99.90;;;;;;4180665;28;20363;-77
2020/12/27 02:28:36;;;;;;;7.70;6.13;;;4.60;99.90;;;;;;4181194;28;20438;-78
2020/12/27 02:30:37;;;;;;;9.75;8.00;;;4.40;99.90;;;;;;4162155;28;20123;-78
2020/12/27 02:32:39;;;;;;;8.32;6.38;;;4.70;99.90;;;;;;4177873;28;20125;-79
2020/12/27 02:34:39;;;;;;;9.52;8.20;;;4.60;99.90;;;;;;4178774;28;20468;-79
2020/12/27 02:36:40;;;;;;;10.88;7.25;;;4.50;99.90;;;;;;4178902;28;20029;-78
2020/12/27 02:38:41;;;;;;;9.63;6.97;;;4.60;99.90;;;;;;4175941;28;20392;-79
2020/12/27 02:40:42;;;;;;;12.57;8.18;;;4.60;99.90;;;;;;4179198;28;20388;-78
2020/12/27 02:42:43;;;;;;;9.20;7.05;;;4.60;99.90;;;;;;4178747;28;20021;-79
2020/12/27 02:47:02;;;;;;;9.10;7.15;;;4.80;99.90;;;;;;4177724;28;20447;-78
2020/12/27 02:49:03;;;;;;;12.85;7.40;;;5.60;99.90;;;;;;4177631;28;20087;-78
2020/12/27 02:51:04;;;;;;;12.27;6.88;;;4.70;99.90;;;;;;4177570;28;20044;-78
2020/12/27 02:53:04;;;;;;;9.43;7.13;;;4.50;99.90;;;;;;4178389;28;20028;-78
2020/12/27 02:55:06;;;;;;;9.10;7.90;;;4.50;99.90;;;;;;4157611;28;20045;-78
2020/12/27 02:57:07;;;;;;;10.20;7.93;;;4.50;99.90;;;;;;4169069;28;20348;-78
2020/12/27 02:59:07;;;;;;;9.40;8.00;;;4.40;99.90;;;;;;4178521;28;20025;-78
2020/12/27 03:01:08;;;;;;;9.85;7.85;;;4.40;99.90;;;;;;4161368;28;20026;-78
2020/12/27 03:03:09;;;;;;;10.82;7.57;;;4.40;99.90;;;;;;4178850;28;20029;-78
2020/12/27 03:05:10;;;;;;;8.55;6.90;;;4.40;99.90;;;;;;4178967;28;20033;-78
2020/12/27 03:07:10;;;;;;;8.65;6.13;;;4.40;99.90;;;;;;4160651;28;20068;-78
2020/12/27 03:09:11;;;;;;;6.63;5.47;;;4.30;99.90;;;;;;4161205;28;20025;-78
2020/12/27 03:11:12;;;;;;;6.70;5.63;;;4.30;99.90;;;;;;4178795;28;20096;-79
2020/12/27 03:13:12;;;;;;;10.48;7.80;;;4.40;99.90;;;;;;4178975;28;20037;-78
2020/12/27 03:15:13;;;;;;;7.10;6.07;;;4.20;99.90;;;;;;4161107;28;20091;-78
2020/12/27 03:17:14;;;;;;;6.72;5.90;;;4.20;99.90;;;;;;4178742;28;20427;-78
2020/12/27 03:19:14;;;;;;;15.27;9.13;;;4.20;99.90;;;;;;4162391;28;20513;-78
2020/12/27 03:21:16;;;;;;;8.52;6.80;;;4.20;99.90;;;;;;4162318;28;20029;-78
2020/12/27 03:23:17;;;;;;;8.82;7.93;;;4.20;99.90;;;;;;4180412;28;20057;-78
2020/12/27 03:25:18;;;;;;;6.85;5.90;;;4.30;99.90;;;;;;4179917;28;20373;-78
2020/12/27 03:27:19;;;;;;;9.63;6.20;;;4.20;99.90;;;;;;4179739;28;20033;-79
2020/12/27 03:29:19;;;;;;;10.10;6.25;;;4.20;99.90;;;;;;4180182;28;20025;-78
2020/12/27 03:31:20;;;;;;;5.70;4.95;;;4.20;99.90;;;;;;4179568;28;20082;-78
2020/12/27 03:33:20;;;;;;;9.77;7.35;;;4.20;99.90;;;;;;4162387;28;20598;-78
2020/12/27 03:35:21;;;;;;;8.88;6.65;;;4.20;99.90;;;;;;4180128;28;20033;-78
2020/12/27 03:37:22;;;;;;;9.52;7.13;;;4.20;99.90;;;;;;4179650;28;20029;-78
2020/12/27 03:39:23;;;;;;;7.50;6.55;;;4.10;99.90;;;;;;4162154;28;20116;-78
2020/12/27 03:41:23;;;;;;;11.40;7.28;;;4.10;99.90;;;;;;4179842;28;20078;-77
2020/12/27 03:43:24;;;;;;;10.13;6.78;;;4.10;99.90;;;;;;4162124;28;20419;-78
2020/12/27 03:45:25;;;;;;;8.65;7.72;;;4.10;99.90;;;;;;4179925;28;20480;-78
2020/12/27 03:47:26;;;;;;;9.00;6.93;;;4.10;99.90;;;;;;4164931;28;20401;-77
2020/12/27 03:49:26;;;;;;;7.10;6.40;;;4.20;99.90;;;;;;4162020;28;20075;-78
2020/12/27 03:51:27;;;;;;;10.60;7.07;;;4.20;99.90;;;;;;4179669;28;20097;-78
2020/12/27 03:53:27;;;;;;;7.53;6.53;;;4.10;99.90;;;;;;4179400;28;20380;-78
2020/12/27 03:55:28;;;;;;;10.18;6.65;;;4.10;99.90;;;;;;4162056;28;20033;-77
2020/12/27 03:57:28;;;;;;;8.05;6.53;;;4.10;99.90;;;;;;4173820;28;20029;-78
2020/12/27 03:59:29;;;;;;;7.05;5.80;;;4.10;99.90;;;;;;4179167;28;20107;-78
2020/12/27 04:01:32;;;;;;;5.30;4.78;;;4.10;99.90;;;;;;4179538;28;20029;-77
2020/12/27 04:03:33;;;;;;;8.95;6.85;;;4.10;99.90;;;;;;4161540;28;20036;-77
2020/12/27 04:05:33;;;;;;;7.45;6.10;;;4.10;99.90;;;;;;4179148;28;20029;-78
2020/12/27 04:07:34;;;;;;;7.57;6.53;;;4.10;99.90;;;;;;4179308;28;20025;-78
2020/12/27 04:09:35;;;;;;;10.18;6.53;;;4.10;99.90;;;;;;4179188;28;20026;-78
2020/12/27 04:11:36;;;;;;;7.47;6.20;;;4.10;99.90;;;;;;4179348;28;20392;-78
2020/12/27 04:13:36;;;;;;;9.55;6.07;;;4.10;99.90;;;;;;4179124;28;20067;-78
2020/12/27 04:15:37;;;;;;;4.97;4.47;;;4.10;99.90;;;;;;4179277;28;20380;-78
2020/12/27 04:17:38;;;;;;;6.53;4.75;;;4.10;99.90;;;;;;4179358;28;20025;-78
2020/12/27 04:19:38;;;;;;;6.65;5.93;;;4.20;99.90;;;;;;4179251;28;20025;-78
2020/12/27 04:21:42;;;;;;;6.93;6.20;;;4.20;99.90;;;;;;4178969;28;20028;-78
2020/12/27 04:23:43;;;;;;;5.28;4.78;;;4.20;99.90;;;;;;4179378;28;20063;-78
2020/12/27 04:25:43;;;;;;;7.57;5.47;;;4.20;99.90;;;;;;4161449;28;20021;-77
2020/12/27 04:27:44;;;;;;;6.03;5.38;;;4.20;99.90;;;;;;4161234;28;20077;-77
2020/12/27 04:29:45;;;;;;;6.18;4.82;;;4.20;99.90;;;;;;4179062;28;20036;-77
2020/12/27 04:31:51;;;;;;;9.20;7.28;;;4.10;99.90;;;;;;4161173;28;20116;-77
2020/12/27 04:33:55;;;;;;;6.68;5.85;;;4.10;99.90;;;;;;4178119;28;20484;-77
2020/12/27 04:35:56;;;;;;;7.13;4.30;;;4.10;99.90;;;;;;4177684;28;20025;-80
2020/12/27 04:37:57;;;;;;;9.18;5.70;;;4.10;99.90;;;;;;4168257;28;20032;-78
2020/12/27 04:39:57;;;;;;;8.93;6.63;;;4.10;99.90;;;;;;4177617;28;20051;-78
2020/12/27 04:41:58;;;;;;;4.95;4.45;;;4.10;99.90;;;;;;4177095;28;20037;-78
2020/12/27 04:43:58;;;;;;;6.88;6.18;;;4.20;99.90;;;;;;4177711;28;20025;-78
2020/12/27 04:45:59;;;;;;;8.77;5.65;;;4.20;99.90;;;;;;4176966;28;20029;-77
2020/12/27 04:48:00;;;;;;;6.97;5.85;;;4.20;99.90;;;;;;4177059;28;20056;-78
2020/12/27 04:50:00;;;;;;;4.50;3.72;;;4.10;99.90;;;;;;4175817;28;20033;-78
2020/12/27 04:52:02;;;;;;;8.70;6.13;;;4.20;99.90;;;;;;4156244;28;20475;-78
2020/12/27 04:54:04;;;;;;;4.50;4.10;;;4.20;99.90;;;;;;4159300;28;20029;-77
2020/12/27 04:56:06;;;;;;;5.88;5.35;;;4.20;99.90;;;;;;4177359;28;20498;-78
2020/12/27 04:58:11;;;;;;;6.75;5.95;;;4.20;99.90;;;;;;4177507;28;20025;-78
2020/12/27 05:00:13;;;;;;;5.38;4.72;;;4.20;99.90;;;;;;4159289;28;20120;-78
2020/12/27 05:02:15;;;;;;;6.60;5.47;;;4.20;99.90;;;;;;4177123;28;20381;-78
2020/12/27 05:04:22;;;;;;;4.88;3.70;;;4.20;99.90;;;;;;4177818;28;20074;-77
2020/12/27 05:06:23;;;;;;;7.00;4.43;;;4.20;99.90;;;;;;4178789;28;20524;-77
2020/12/27 05:08:24;;;;;;;4.30;3.90;;;4.20;99.90;;;;;;4178520;28;20056;-78
2020/12/27 05:10:25;;;;;;;5.18;4.55;;;4.20;99.90;;;;;;4178771;28;20389;-78
2020/12/27 05:12:25;;;;;;;7.95;4.72;;;4.20;99.90;;;;;;4178661;28;20391;-78
2020/12/27 05:14:28;;;;;;;4.88;4.20;;;4.20;99.90;;;;;;4178500;28;20512;-79
2020/12/27 05:16:28;;;;;;;3.90;3.60;;;4.20;99.90;;;;;;4181266;28;20021;-78
2020/12/27 05:18:30;;;;;;;6.93;4.30;;;4.20;99.90;;;;;;4164281;28;20516;-78
2020/12/27 05:20:32;;;;;;;3.83;3.47;;;4.20;99.90;;;;;;4181911;28;20116;-79
2020/12/27 05:22:34;;;;;;;4.00;3.17;;;4.20;99.90;;;;;;4141518;28;20088;-78
2020/12/27 05:24:37;;;;;;;4.65;4.25;;;4.30;99.90;;;;;;4164860;28;20469;-78
2020/12/27 05:26:40;;;;;;;3.78;3.47;;;4.30;99.90;;;;;;4181909;28;20469;-78
2020/12/27 05:28:43;;;;;;;4.20;3.80;;;4.30;99.90;;;;;;4173689;28;20407;-77
2020/12/27 05:30:43;;;;;;;3.50;3.03;;;4.20;99.90;;;;;;4164137;28;20483;-78
2020/12/27 05:32:45;;;;;;;3.40;2.90;;;4.30;99.90;;;;;;4181351;28;20112;-78
2020/12/27 05:34:45;;;;;;;3.35;3.15;;;4.30;99.90;;;;;;4180436;28;20094;-78
2020/12/27 05:36:46;;;;;;;3.72;3.05;;;4.20;99.90;;;;;;4180287;28;20029;-76
2020/12/27 05:38:47;;;;;;;3.35;3.05;;;4.30;99.90;;;;;;4180654;28;20025;-77
2020/12/27 05:40:48;;;;;;;3.70;2.78;;;4.30;99.90;;;;;;4181385;28;20017;-79
2020/12/27 05:42:48;;;;;;;3.88;2.85;;;4.30;99.90;;;;;;4162114;28;20484;-76
2020/12/27 05:44:49;;;;;;;3.33;3.00;;;4.30;99.90;;;;;;4162060;28;20041;-77
2020/12/27 05:46:51;;;;;;;2.95;2.75;;;4.30;99.90;;;;;;4179832;28;20032;-78
2020/12/27 05:48:56;;;;;;;3.60;3.05;;;4.30;99.90;;;;;;4162849;28;20503;-77
2020/12/27 05:51:02;;;;;;;4.45;2.50;;;4.30;99.90;;;;;;4181449;28;20131;-78
2020/12/27 05:53:14;;;;;;;3.35;2.70;;;4.30;99.90;;;;;;4163302;28;20026;-77
2020/12/27 05:55:19;;;;;;;3.00;2.70;;;4.30;99.90;;;;;;4181410;28;20104;-78
2020/12/27 05:57:22;;;;;;;3.35;3.05;;;4.30;99.90;;;;;;4180362;28;20029;-78
2020/12/27 05:59:28;;;;;;;3.13;2.90;;;4.30;99.90;;;;;;4179863;28;20380;-77
2020/12/27 06:01:35;;;;;;;3.35;3.05;;;4.40;99.90;;;;;;4162120;28;20018;-77
2020/12/27 06:03:55;;;;;;;2.70;2.50;;;4.30;99.90;;;;;;4162276;28;20121;-78
2020/12/27 06:05:58;;;;;;;2.90;2.70;;;4.40;99.90;;;;;;4181133;28;20096;-78
2020/12/27 06:08:34;;;;;;;2.42;2.22;;;4.30;99.90;;;;;;4180320;28;20052;-78
2020/12/27 06:10:54;;;;;;;2.30;2.10;;;4.40;99.90;;;;;;4170050;28;20047;-78
2020/12/27 06:12:58;;;;;;;2.85;2.63;;;4.30;99.90;;;;;;4179735;28;20179;-77
2020/12/27 06:15:08;;;;;;;;;;;4.40;99.90;;;;;;4163261;28;20022;-77
2020/12/27 06:17:11;;;;;;;2.50;2.17;;;4.40;99.90;;;;;;4179674;28;19916;-77
2020/12/27 06:19:30;;;;;;;;;;;4.40;99.90;;;;;;4179998;28;20075;-77
2020/12/27 06:21:40;;;;;;;2.20;2.10;;;4.40;99.90;;;;;;4179607;28;20341;-78
2020/12/27 06:23:45;;;;;;;2.80;2.25;;;4.40;99.90;;;;;;4162151;28;20056;-77
2020/12/27 06:25:46;;;;;;;2.65;2.38;;;4.40;99.90;;;;;;4163350;28;20026;-77
2020/12/27 06:27:46;;;;;;;3.10;2.65;;;4.40;99.90;;;;;;4178726;28;20035;-78
2020/12/27 06:29:54;;;;;;;2.90;2.70;;;4.50;99.90;;;;;;4180591;28;20078;-80
2020/12/27 06:31:56;;;;;;;2.40;2.20;;;4.50;99.90;;;;;;4176972;28;20025;-79
2020/12/27 06:33:56;;;;;;;1.95;1.85;;;4.50;99.90;;;;;;4176325;28;20549;-79
2020/12/27 06:35:57;;;;;;;2.20;2.00;;;4.60;99.90;;;;;;4162282;28;20064;-79
2020/12/27 06:37:58;;;;;;;1.90;1.80;;;4.60;99.90;;;;;;4177742;28;20166;-79
2020/12/27 06:39:58;;;;;;;2.78;1.92;;;4.60;99.90;;;;;;4177529;28;20076;-79
2020/12/27 06:42:15;;;;;;;1.95;1.85;;;4.60;99.90;;;;;;4177109;28;20432;-78
2020/12/27 06:44:39;;;;;;;2.35;2.15;;;4.60;99.90;;;;;;4177326;28;20415;-79
2020/12/27 06:46:46;;;;;;;2.70;2.53;;;4.60;99.90;;;;;;4177943;28;20025;-79
2020/12/27 06:48:46;;;;;;;2.38;2.20;;;4.60;99.90;;;;;;4177538;28;20041;-77
2020/12/27 06:50:47;;;;;;;2.25;2.15;;;4.60;99.90;;;;;;4178601;28;20345;-78
2020/12/27 06:52:48;;;;;;;4.10;2.45;;;4.70;99.90;;;;;;4159637;28;20288;-78
2020/12/27 06:54:55;;;;;;;2.47;2.10;;;4.70;99.90;;;;;;4180077;28;20026;-78
2020/12/27 06:56:56;;;;;;;1.90;1.80;;;4.70;99.90;;;;;;4162847;28;20034;-78
2020/12/27 06:59:04;;;;;;;2.10;2.00;;;4.80;99.90;;;;;;4180468;28;20029;-77
2020/12/27 07:01:22;;;;;;;2.40;2.30;;;4.80;99.90;;;;;;4179979;28;20028;-77
2020/12/27 07:03:23;;;;;;;2.30;2.13;;;4.80;99.90;;;;;;4168465;28;20170;-77
2020/12/27 07:05:33;;;;;;;1.88;1.77;;;4.80;99.90;;;;;;4178743;28;20021;-76
2020/12/27 07:07:46;;;;;;;2.22;2.13;;;4.80;99.90;;;;;;4180098;28;20120;-77
2020/12/27 07:09:50;;;;;;;2.05;1.95;;;4.80;99.90;;;;;;4162107;28;20120;-77
2020/12/27 07:12:09;;;;;;;2.50;2.40;;;4.80;99.90;;;;;;4162750;28;20099;-79
2020/12/27 07:14:11;;;;;;;2.38;2.22;;;4.80;99.90;;;;;;4160827;28;20034;-79
2020/12/27 07:16:17;;;;;;;2.03;1.92;;;4.80;99.90;;;;;;4178893;28;20021;-79
2020/12/27 07:18:27;;;;;;;2.65;2.17;;;4.90;99.90;;;;;;4178827;28;20111;-79
2020/12/27 07:20:30;;;;;;;2.00;1.90;;;4.90;99.90;;;;;;4179924;28;20044;-80
2020/12/27 07:22:32;;;;;;;2.10;2.00;;;4.90;99.90;;;;;;4178910;28;20468;-79
2020/12/27 07:24:35;;;;;;;2.90;2.00;;;4.80;99.90;;;;;;4161693;28;20116;-77
2020/12/27 07:26:42;;;;;;;2.00;1.90;;;4.90;99.90;;;;;;4161697;28;20029;-79
2020/12/27 07:28:44;;;;;;;2.42;2.22;;;4.90;99.90;;;;;;4159478;28;20124;-79
2020/12/27 07:30:46;;;;;;;1.98;1.88;;;4.90;99.90;;;;;;4176831;28;20063;-77
2020/12/27 07:32:49;;;;;;;2.20;2.10;;;4.90;99.90;;;;;;4179058;28;20094;-79
2020/12/27 07:34:52;;;;;;;2.30;2.20;;;4.90;99.90;;;;;;4161441;28;20085;-80
2020/12/27 07:36:58;;;;;;;2.03;1.92;;;5.00;99.90;;;;;;4178678;28;20025;-80
2020/12/27 07:39:00;;;;;;;1.80;1.70;;;4.90;99.90;;;;;;4177358;28;20025;-80
2020/12/27 07:41:01;;;;;;;2.15;2.05;;;5.00;99.90;;;;;;4178269;28;20380;-78
2020/12/27 07:43:08;;;;;;;2.25;2.15;;;5.00;99.90;;;;;;4160194;28;20034;-77
2020/12/27 07:45:13;;;;;;;1.90;1.80;;;5.00;99.90;;;;;;4179794;28;20112;-77
2020/12/27 07:47:13;;;;;;;2.03;1.92;;;5.00;99.90;;;;;;4161118;28;20038;-78
2020/12/27 07:49:14;;;;;;;2.20;2.10;;;5.10;99.90;;;;;;4179453;28;20048;-77
2020/12/27 07:51:23;;;;;;;1.77;1.67;;;5.00;99.90;;;;;;4179666;28;21493;-77
2020/12/27 07:53:23;;;;;;;2.13;2.03;;;5.10;99.90;;;;;;4179683;28;20376;-78
2020/12/27 07:55:26;;;;;;;1.98;1.88;;;5.10;99.90;;;;;;4179465;28;20021;-78
2020/12/27 07:57:27;;;;;;;1.98;1.88;;;5.10;99.90;;;;;;4179491;28;20033;-77
2020/12/27 07:59:27;;;;;;;2.05;1.95;;;5.10;99.90;;;;;;4179553;28;20075;-79
2020/12/27 08:01:30;;;;;;;2.10;2.00;;;5.10;99.90;;;;;;4179856;28;20108;-80
2020/12/27 08:03:31;;;;;;;1.83;1.67;;;5.00;99.90;;;;;;4178673;28;20057;-81
2020/12/27 08:05:32;;;;;;;1.80;1.70;;;5.10;99.90;;;;;;4178690;28;20029;-79
2020/12/27 08:07:33;;;;;;;1.70;1.60;;;5.10;99.90;;;;;;4151437;28;20058;-80
2020/12/27 08:09:34;;;;;;;2.03;1.92;;;5.10;99.90;;;;;;4144738;28;20084;-79
2020/12/27 08:11:39;;;;;;;1.77;1.70;;;5.10;99.90;;;;;;4161466;28;20388;-80
2020/12/27 08:13:40;;;;;;;1.98;1.88;;;5.10;99.90;;;;;;4164883;28;20029;-78
2020/12/27 08:15:41;;;;;;;3.97;2.13;;;5.00;99.90;;;;;;4164577;28;20040;-80
2020/12/27 08:17:54;;;;;;;1.90;1.80;;;5.10;99.90;;;;;;4162926;28;20029;-80
2020/12/27 08:20:01;;;;;;;1.65;1.60;;;5.10;99.90;;;;;;4164547;28;20025;-77
2020/12/27 08:22:02;;;;;;;1.95;1.85;;;5.10;99.90;;;;;;4172077;28;20117;-78
2020/12/27 08:24:07;;;;;;;2.00;1.90;;;5.10;99.90;;;;;;4161787;28;20037;-78
2020/12/27 08:26:08;;;;;;;2.05;1.90;;;5.10;99.90;;;;;;4165050;28;20433;-77
2020/12/27 08:28:12;;;;;;;2.05;1.95;;;5.10;99.90;;;;;;4167018;28;20033;-78
2020/12/27 08:30:13;;;;;;;2.00;1.90;;;5.10;99.90;;;;;;4163285;28;20056;-77
2020/12/27 08:32:14;;;;;;;2.25;2.15;;;5.10;99.90;;;;;;4163632;28;20029;-78
2020/12/27 08:34:18;;;;;;;5.43;2.22;;;5.10;99.90;;;;;;4178490;28;20032;-77
2020/12/27 08:36:22;;;;;;;;;;;5.00;99.90;;;;;;4178607;28;20041;-78
2020/12/27 08:38:26;;;;;;;;;;;5.10;99.90;;;;;;4177439;28;20342;-77
2020/12/27 08:40:29;;;;;;;2.10;2.00;;;5.00;99.90;;;;;;4168963;28;19936;-77
2020/12/27 08:42:41;;;;;;;6.53;2.10;;;5.10;99.90;;;;;;4171142;28;20481;-77
2020/12/27 08:45:07;;;;;;;1.90;1.80;;;5.00;99.90;;;;;;4169857;28;20111;-77
2020/12/27 08:47:15;;;;;;;1.90;1.80;;;5.00;99.90;;;;;;4148075;28;20057;-77
2020/12/27 08:49:49;;;;;;;2.00;1.90;;;5.00;99.90;;;;;;4161886;28;20095;-78
2020/12/27 08:52:02;;;;;;;2.10;2.00;;;5.00;99.90;;;;;;4159653;28;20471;-78
2020/12/27 08:54:06;;;;;;;2.07;1.97;;;5.00;99.90;;;;;;4177157;28;20391;-76
2020/12/27 08:56:08;;;;;;;1.80;1.70;;;5.00;99.90;;;;;;4178531;28;20384;-77
2020/12/27 08:58:12;;;;;;;1.90;1.80;;;4.90;99.90;;;;;;4177931;28;20166;-78
2020/12/27 09:00:14;;;;;;;2.00;1.90;;;5.00;99.90;;;;;;4159684;28;20037;-77
2020/12/27 09:02:15;;;;;;;1.90;1.80;;;5.00;99.90;;;;;;4177359;28;20136;-77
2020/12/27 09:04:22;;;;;;;1.67;1.58;;;5.00;99.90;;;;;;4178786;28;20110;-78
2020/12/27 09:06:22;;;;;;;2.00;1.90;;;5.00;99.90;;;;;;4159770;28;20025;-77
2020/12/27 09:08:23;;;;;;;2.67;2.47;;;5.00;99.90;;;;;;4159830;28;20036;-77
2020/12/27 09:10:29;;;;;;;2.50;1.85;;;5.00;99.90;;;;;;4178731;28;20029;-77
2020/12/27 09:12:33;;;;;;;2.75;1.92;;;5.00;99.90;;;;;;4143509;28;20042;-77
2020/12/27 09:14:37;;;;;;;1.80;1.70;;;5.00;99.90;;;;;;4158476;28;20025;-77
2020/12/27 09:16:40;;;;;;;1.70;1.70;;;5.10;99.90;;;;;;4166914;28;20053;-77
2020/12/27 09:18:42;;;;;;;2.00;1.90;;;5.00;99.90;;;;;;4176778;28;20034;-79
2020/12/27 09:20:46;;;;;;;1.73;1.63;;;5.00;99.90;;;;;;4167460;28;20087;-77
2020/12/27 09:22:47;;;;;;;2.05;1.90;;;5.00;99.90;;;;;;4169096;28;20578;-78
2020/12/27 09:25:04;;;;;;;1.77;1.67;;;5.00;99.90;;;;;;4173199;28;20033;-78
2020/12/27 09:27:09;;;;;;;2.20;2.08;;;5.00;99.90;;;;;;4155139;28;20034;-79
2020/12/27 09:29:14;;;;;;;2.20;2.10;;;5.00;99.90;;;;;;4143469;28;20030;-78
2020/12/27 09:31:15;;;;;;;2.03;1.92;;;5.00;99.90;;;;;;4158746;28;20033;-78
2020/12/27 09:33:20;;;;;;;2.47;1.98;;;5.00;99.90;;;;;;4158000;28;20030;-78
2020/12/27 09:35:22;;;;;;;1.75;1.70;;;5.00;99.90;;;;;;4140455;28;20037;-79
2020/12/27 09:37:23;;;;;;;1.90;1.80;;;5.00;99.90;;;;;;4158569;28;20030;-78
2020/12/27 09:39:30;;;;;;;1.92;1.83;;;4.90;99.90;;;;;;4153910;28;20028;-78
2020/12/27 09:41:39;;;;;;;1.98;1.88;;;5.00;99.90;;;;;;4156238;28;20037;-77
2020/12/27 09:43:53;;;;;;;2.40;2.20;;;5.00;99.90;;;;;;4144860;28;20030;-77
2020/12/27 09:45:53;;;;;;;1.77;1.67;;;5.00;99.90;;;;;;4167864;28;20026;-78
2020/12/27 09:47:56;;;;;;;2.15;1.80;;;5.10;99.90;;;;;;4177288;28;20043;-78
2020/12/27 09:50:05;;;;;;;1.85;1.75;;;5.10;99.90;;;;;;4155981;28;20056;-78
2020/12/27 09:52:12;;;;;;;1.83;1.73;;;5.10;99.90;;;;;;4176870;28;20040;-79
2020/12/27 09:54:13;;;;;;;2.15;2.05;;;5.10;99.90;;;;;;4159731;28;20529;-78
2020/12/27 09:56:13;;;;;;;3.65;2.47;;;5.10;99.90;;;;;;4159619;28;20065;-78
2020/12/27 09:58:14;;;;;;;2.00;1.90;;;5.10;99.90;;;;;;4159516;28;20026;-80
2020/12/27 10:00:15;;;;;;;1.98;1.88;;;5.10;99.90;;;;;;4176314;28;20029;-77
2020/12/27 10:02:17;;;;;;;2.00;1.90;;;5.10;99.90;;;;;;4178236;28;20033;-78
2020/12/27 10:04:18;;;;;;;1.90;1.80;;;5.10;99.90;;;;;;4180800;28;20140;-78
2020/12/27 10:06:18;;;;;;;2.40;2.20;;;5.10;99.90;;;;;;4180317;28;20029;-78
2020/12/27 10:08:19;;;;;;;1.80;1.70;;;5.20;99.90;;;;;;4178162;28;20480;-78
2020/12/27 10:10:19;;;;;;;2.00;1.90;;;5.10;99.90;;;;;;4159589;28;20412;-78
2020/12/27 10:12:20;;;;;;;1.80;1.70;;;5.10;99.90;;;;;;4180299;28;20131;-77
2020/12/27 10:14:21;;;;;;;1.95;1.85;;;5.10;99.90;;;;;;4180295;28;20068;-78
2020/12/27 10:16:22;;;;;;;2.75;2.03;;;5.20;99.90;;;;;;4178196;28;20134;-78
2020/12/27 10:18:22;;;;;;;2.20;2.10;;;5.20;99.90;;;;;;4179324;28;20025;-78
2020/12/27 10:20:23;;;;;;;3.85;2.17;;;5.20;99.90;;;;;;4162248;28;20424;-78
2020/12/27 10:22:24;;;;;;;2.30;2.17;;;5.20;99.90;;;;;;4162043;28;20033;-79
2020/12/27 10:24:31;;;;;;;2.15;2.05;;;5.20;99.90;;;;;;4180144;28;20025;-79
2020/12/27 10:26:32;;;;;;;2.15;2.05;;;5.20;99.90;;;;;;4180137;28;20087;-77
2020/12/27 10:28:36;;;;;;;1.60;1.60;;;5.20;99.90;;;;;;4179783;28;20044;-78
2020/12/27 10:30:37;;;;;;;1.85;1.77;;;5.20;99.90;;;;;;4179858;28;20029;-78
2020/12/27 10:32:37;;;;;;;1.80;1.70;;;5.30;99.90;;;;;;4164047;28;20080;-77
2020/12/27 10:34:38;;;;;;;2.05;1.85;;;5.20;99.90;;;;;;4177267;28;20501;-79
2020/12/27 10:36:43;;;;;;;1.92;1.80;;;5.20;99.90;;;;;;4174037;28;20761;-78
2020/12/27 10:38:44;;;;;;;2.03;1.92;;;5.30;99.90;;;;;;4177009;28;20026;-78
2020/12/27 10:40:44;;;;;;;1.70;1.60;;;5.30;99.90;;;;;;4177907;28;20389;-78
2020/12/27 10:42:45;;;;;;;1.73;1.63;;;5.30;99.90;;;;;;4160124;28;20402;-78
2020/12/27 10:44:45;;;;;;;1.60;1.60;;;5.30;99.90;;;;;;4178006;28;20024;-78
2020/12/27 10:46:49;;;;;;;1.92;1.80;;;5.30;99.90;;;;;;4178178;28;20443;-79
2020/12/27 10:48:50;;;;;;;1.98;1.88;;;5.20;99.90;;;;;;4176998;28;20564;-78
2020/12/27 10:50:50;;;;;;;1.90;1.80;;;5.30;99.90;;;;;;4177852;28;20059;-79